Time;durP1;ratioP1;P1;durP2;ratioP2;P2;SDS_P1;SDS_P2;PMS_P1;PMS_P2;Temp;Humidity;BMP_temperature;BMP_pressure;BME280_temperature;BME280_humidity;BME280_pressure;Samples;Min_cycle;Max_cycle;Signal;HPM_P1;HPM_P2
2024/03/27 00:00:07;;;;;;;5.37;4.07;;;;;;;;;;6073968;23;20623;-84
2024/03/27 00:02:34;;;;;;;4.37;3.47;;;;;;;;;;6098394;23;20164;-86
2024/03/27 00:05:00;;;;;;;3.07;2.70;;;;;;;;;;6098274;23;20191;-85
2024/03/27 00:07:30;;;;;;;3.10;2.50;;;;;;;;;;6098235;23;20254;-84
2024/03/27 00:09:57;;;;;;;2.50;2.23;;;;;;;;;;6098614;23;20203;-85
2024/03/27 00:12:23;;;;;;;2.80;2.50;;;;;;;;;;6097968;23;20611;-85
2024/03/27 00:14:49;;;;;;;3.33;2.40;;;;;;;;;;6074017;23;20188;-84
2024/03/27 00:17:21;;;;;;;3.13;2.30;;;;;;;;;;6074597;23;20172;-85
2024/03/27 00:19:47;;;;;;;4.03;2.50;;;;;;;;;;6074485;23;20191;-85
2024/03/27 00:22:14;;;;;;;2.50;2.10;;;;;;;;;;6073963;23;20159;-85
2024/03/27 00:24:43;;;;;;;2.40;2.20;;;;;;;;;;6098667;23;20168;-85
2024/03/27 00:27:09;;;;;;;2.97;1.77;;;;;;;;;;6097944;23;20563;-85
2024/03/27 00:29:35;;;;;;;3.13;2.47;;;;;;;;;;6098420;23;20172;-85
2024/03/27 00:32:05;;;;;;;2.87;1.97;;;;;;;;;;6097336;23;20187;-85
2024/03/27 00:34:32;;;;;;;3.77;2.33;;;;;;;;;;6092522;23;20267;-85
2024/03/27 00:37:00;;;;;;;2.73;2.23;;;;;;;;;;6045070;23;20177;-85
2024/03/27 00:39:27;;;;;;;2.83;2.00;;;;;;;;;;6069128;23;20227;-85
2024/03/27 00:41:54;;;;;;;6.10;2.23;;;;;;;;;;6045400;23;20185;-85
2024/03/27 00:44:22;;;;;;;2.10;1.90;;;;;;;;;;6092516;23;20191;-85
2024/03/27 00:46:48;;;;;;;2.93;1.97;;;;;;;;;;6093604;23;20397;-84
2024/03/27 00:49:14;;;;;;;2.53;2.20;;;;;;;;;;6117345;23;20194;-84
2024/03/27 00:51:42;;;;;;;2.73;2.03;;;;;;;;;;6069115;23;20176;-84
2024/03/27 00:54:08;;;;;;;3.70;2.30;;;;;;;;;;6045398;23;20192;-85
2024/03/27 00:56:37;;;;;;;3.73;2.13;;;;;;;;;;6093188;23;20218;-86
2024/03/27 00:59:03;;;;;;;4.23;2.30;;;;;;;;;;6069272;23;20182;-85
2024/03/27 01:01:30;;;;;;;2.83;2.17;;;;;;;;;;6093043;23;20160;-85
2024/03/27 01:03:56;;;;;;;3.17;2.10;;;;;;;;;;6068802;23;20245;-84
2024/03/27 01:06:22;;;;;;;2.57;2.03;;;;;;;;;;6093173;23;20169;-85
2024/03/27 01:08:50;;;;;;;4.00;2.00;;;;;;;;;;6094789;23;20695;-85
2024/03/27 01:11:16;;;;;;;2.30;2.10;;;;;;;;;;6094779;23;20190;-86
2024/03/27 01:13:43;;;;;;;2.30;2.03;;;;;;;;;;6094553;23;20188;-85
2024/03/27 01:16:09;;;;;;;3.80;2.10;;;;;;;;;;6047237;23;20197;-86
2024/03/27 01:18:39;;;;;;;4.57;2.30;;;;;;;;;;6070740;23;20231;-85
2024/03/27 01:21:07;;;;;;;2.10;1.90;;;;;;;;;;6071385;23;20184;-84
2024/03/27 01:23:33;;;;;;;2.57;2.23;;;;;;;;;;6119276;23;20173;-85
2024/03/27 01:26:03;;;;;;;3.43;2.03;;;;;;;;;;6094852;23;20702;-85
2024/03/27 01:28:31;;;;;;;2.30;2.10;;;;;;;;;;6094537;23;20188;-86
2024/03/27 01:30:57;;;;;;;3.90;1.90;;;;;;;;;;6094715;23;20245;-86
2024/03/27 01:33:23;;;;;;;3.23;2.10;;;;;;;;;;6051440;23;20629;-85
2024/03/27 01:35:52;;;;;;;3.67;2.17;;;;;;;;;;6075748;23;20163;-85
2024/03/27 01:38:18;;;;;;;3.87;2.07;;;;;;;;;;6051312;23;20164;-86
2024/03/27 01:40:44;;;;;;;3.23;2.40;;;;;;;;;;6075826;23;20207;-84
2024/03/27 01:43:11;;;;;;;3.10;2.27;;;;;;;;;;6099211;23;20255;-86
2024/03/27 01:45:36;;;;;;;2.50;2.17;;;;;;;;;;6051558;23;20172;-86
2024/03/27 01:48:02;;;;;;;3.47;2.50;;;;;;;;;;6051603;23;20174;-85
2024/03/27 01:50:29;;;;;;;3.90;2.30;;;;;;;;;;6075763;23;20172;-87
2024/03/27 01:52:57;;;;;;;2.83;2.17;;;;;;;;;;6051761;23;20662;-85
2024/03/27 01:55:26;;;;;;;2.47;2.27;;;;;;;;;;6099863;23;20655;-85
2024/03/27 01:57:53;;;;;;;2.67;2.10;;;;;;;;;;6099582;23;20259;-86
2024/03/27 02:00:20;;;;;;;2.57;2.10;;;;;;;;;;6051748;23;20251;-85
2024/03/27 02:02:46;;;;;;;3.00;2.50;;;;;;;;;;6099026;23;20329;-86
2024/03/27 02:05:12;;;;;;;4.43;2.13;;;;;;;;;;6075768;23;20627;-86
2024/03/27 02:07:38;;;;;;;4.10;2.27;;;;;;;;;;6075543;23;20176;-86
2024/03/27 02:10:05;;;;;;;3.20;2.30;;;;;;;;;;6099555;23;20259;-86
2024/03/27 02:12:31;;;;;;;2.63;2.27;;;;;;;;;;6051259;23;20642;-87
2024/03/27 02:15:01;;;;;;;4.03;2.57;;;;;;;;;;6075543;23;20199;-85
2024/03/27 02:17:28;;;;;;;3.73;2.27;;;;;;;;;;6099560;23;20167;-85
2024/03/27 02:19:54;;;;;;;2.57;2.30;;;;;;;;;;6098869;23;20171;-86
2024/03/27 02:22:20;;;;;;;3.53;2.30;;;;;;;;;;6099187;23;20191;-85
2024/03/27 02:24:51;;;;;;;2.07;1.80;;;;;;;;;;6075737;23;20874;-85
2024/03/27 02:27:17;;;;;;;2.50;2.20;;;;;;;;;;6075333;23;20175;-86
2024/03/27 02:29:43;;;;;;;4.53;2.10;;;;;;;;;;6098942;23;20239;-85
2024/03/27 02:32:10;;;;;;;3.20;2.40;;;;;;;;;;6099293;23;20619;-86
2024/03/27 02:34:36;;;;;;;3.27;2.07;;;;;;;;;;6046034;23;20240;-86
2024/03/27 02:37:05;;;;;;;3.23;2.47;;;;;;;;;;6070331;23;20169;-86
2024/03/27 02:39:31;;;;;;;3.93;2.70;;;;;;;;;;6094212;23;20184;-85
2024/03/27 02:41:58;;;;;;;3.17;2.20;;;;;;;;;;6094210;23;20239;-86
2024/03/27 02:44:24;;;;;;;3.13;1.90;;;;;;;;;;6094267;23;20369;-86
2024/03/27 02:46:52;;;;;;;3.27;2.27;;;;;;;;;;6118540;23;20172;-86
2024/03/27 02:49:18;;;;;;;3.17;2.50;;;;;;;;;;6094520;23;20961;-86
2024/03/27 02:51:44;;;;;;;3.33;2.30;;;;;;;;;;6070902;23;20619;-85
2024/03/27 02:54:10;;;;;;;2.60;2.23;;;;;;;;;;6093949;23;20238;-85
2024/03/27 02:56:37;;;;;;;4.50;2.50;;;;;;;;;;6070398;23;20175;-85
2024/03/27 02:59:03;;;;;;;3.30;2.40;;;;;;;;;;6070145;23;20223;-86
2024/03/27 03:01:30;;;;;;;2.63;2.43;;;;;;;;;;6118338;23;20223;-85
2024/03/27 03:03:59;;;;;;;4.17;2.20;;;;;;;;;;6118029;23;20707;-86
2024/03/27 03:06:25;;;;;;;5.57;2.47;;;;;;;;;;6094316;23;20506;-84
2024/03/27 03:08:52;;;;;;;2.90;2.47;;;;;;;;;;6070011;23;20188;-86
2024/03/27 03:11:18;;;;;;;2.97;2.20;;;;;;;;;;6094381;23;20631;-86
2024/03/27 03:13:44;;;;;;;2.30;2.10;;;;;;;;;;6070016;23;20327;-86
2024/03/27 03:16:10;;;;;;;3.00;2.43;;;;;;;;;;6046159;23;20179;-87
2024/03/27 03:18:36;;;;;;;3.23;2.50;;;;;;;;;;6094272;23;20172;-86
2024/03/27 03:21:03;;;;;;;3.80;2.70;;;;;;;;;;6118759;23;20215;-85
2024/03/27 03:23:30;;;;;;;4.07;2.53;;;;;;;;;;6069739;23;20168;-85
2024/03/27 03:25:56;;;;;;;3.80;2.27;;;;;;;;;;6093907;23;20192;-87
2024/03/27 03:28:25;;;;;;;3.00;2.40;;;;;;;;;;6069473;23;20199;-85
2024/03/27 03:30:52;;;;;;;4.37;2.20;;;;;;;;;;6093889;23;20218;-83
2024/03/27 03:33:18;;;;;;;4.53;2.07;;;;;;;;;;6050540;23;20286;-85
2024/03/27 03:35:53;;;;;;;3.50;2.30;;;;;;;;;;6051008;23;20278;-84
2024/03/27 03:38:19;;;;;;;2.80;2.60;;;;;;;;;;6050924;23;20259;-86
2024/03/27 03:40:48;;;;;;;2.87;2.37;;;;;;;;;;6075094;23;20179;-86
2024/03/27 03:43:14;;;;;;;2.57;2.37;;;;;;;;;;6075112;23;20168;-86
2024/03/27 03:45:41;;;;;;;2.60;2.37;;;;;;;;;;6074977;23;20205;-86
2024/03/27 03:48:07;;;;;;;2.40;2.20;;;;;;;;;;6051071;23;20251;-85
2024/03/27 03:50:33;;;;;;;4.83;2.50;;;;;;;;;;6051555;23;20175;-86
2024/03/27 03:53:00;;;;;;;3.33;2.30;;;;;;;;;;6051647;23;20642;-85
2024/03/27 03:55:25;;;;;;;3.37;2.90;;;;;;;;;;6051142;23;20217;-84
2024/03/27 03:57:52;;;;;;;2.30;2.10;;;;;;;;;;6051040;23;20194;-84
2024/03/27 04:00:21;;;;;;;3.97;2.70;;;;;;;;;;6052000;23;20167;-86
2024/03/27 04:02:48;;;;;;;4.83;2.60;;;;;;;;;;6075455;23;20194;-86
2024/03/27 04:05:13;;;;;;;3.50;2.60;;;;;;;;;;6098603;23;20171;-86
2024/03/27 04:07:40;;;;;;;3.07;2.77;;;;;;;;;;6099157;23;20230;-86
2024/03/27 04:10:06;;;;;;;3.57;2.60;;;;;;;;;;6075202;23;20170;-86
2024/03/27 04:12:32;;;;;;;3.50;2.87;;;;;;;;;;6098953;23;20171;-84
2024/03/27 04:14:58;;;;;;;3.90;2.60;;;;;;;;;;6074422;23;20250;-85
2024/03/27 04:17:24;;;;;;;5.10;2.83;;;;;;;;;;6074350;23;20164;-87
2024/03/27 04:19:58;;;;;;;3.90;2.53;;;;;;;;;;6099060;23;20243;-85
2024/03/27 04:22:25;;;;;;;4.10;2.67;;;;;;;;;;6051513;23;20246;-85
2024/03/27 04:24:51;;;;;;;2.90;2.60;;;;;;;;;;6050661;23;20176;-85
2024/03/27 04:27:20;;;;;;;3.43;2.50;;;;;;;;;;6051192;23;20195;-87
2024/03/27 04:29:46;;;;;;;4.33;2.77;;;;;;;;;;6050453;23;20172;-86
2024/03/27 04:32:15;;;;;;;3.70;2.70;;;;;;;;;;6074745;23;20167;-83
2024/03/27 04:34:41;;;;;;;3.10;2.70;;;;;;;;;;6098103;23;20226;-83
2024/03/27 04:37:08;;;;;;;3.70;2.60;;;;;;;;;;6098329;23;20168;-84
2024/03/27 04:39:37;;;;;;;4.43;2.80;;;;;;;;;;6074551;23;20227;-83
2024/03/27 04:42:08;;;;;;;5.13;3.17;;;;;;;;;;6050815;23;20192;-83
2024/03/27 04:44:35;;;;;;;3.53;2.90;;;;;;;;;;6100305;23;20255;-83
2024/03/27 04:47:00;;;;;;;3.07;2.50;;;;;;;;;;6076466;23;20251;-84
2024/03/27 04:49:27;;;;;;;3.50;2.77;;;;;;;;;;6100572;23;20171;-86
2024/03/27 04:51:53;;;;;;;3.27;2.47;;;;;;;;;;6100402;23;20702;-86
2024/03/27 04:54:19;;;;;;;3.77;3.07;;;;;;;;;;6099960;23;20194;-86
2024/03/27 04:56:45;;;;;;;3.23;2.70;;;;;;;;;;6076482;23;20177;-86
2024/03/27 04:59:11;;;;;;;3.90;2.60;;;;;;;;;;6076549;23;20259;-85
2024/03/27 05:01:37;;;;;;;3.37;2.70;;;;;;;;;;6100219;23;20699;-84
2024/03/27 05:04:05;;;;;;;4.37;2.80;;;;;;;;;;6075782;23;20170;-85
2024/03/27 05:06:38;;;;;;;3.50;2.50;;;;;;;;;;6099921;23;20778;-84
2024/03/27 05:09:09;;;;;;;3.80;3.20;;;;;;;;;;6076438;23;20166;-85
2024/03/27 05:11:37;;;;;;;4.57;3.23;;;;;;;;;;6100043;23;20615;-83
2024/03/27 05:14:05;;;;;;;5.33;3.33;;;;;;;;;;6051776;23;20188;-86
2024/03/27 05:16:32;;;;;;;3.43;2.90;;;;;;;;;;6076075;23;20195;-83
2024/03/27 05:18:58;;;;;;;3.23;2.90;;;;;;;;;;6099644;23;20179;-85
2024/03/27 05:21:25;;;;;;;5.23;2.80;;;;;;;;;;6099861;23;20160;-85
2024/03/27 05:23:51;;;;;;;3.93;3.03;;;;;;;;;;6076005;23;20168;-86
2024/03/27 05:26:17;;;;;;;4.10;3.00;;;;;;;;;;6076477;23;20224;-85
2024/03/27 05:28:43;;;;;;;4.27;3.00;;;;;;;;;;6099548;23;20199;-86
2024/03/27 05:31:10;;;;;;;4.87;3.00;;;;;;;;;;6099780;23;20181;-86
2024/03/27 05:33:36;;;;;;;4.27;3.13;;;;;;;;;;6070469;23;20188;-84
2024/03/27 05:36:02;;;;;;;5.73;3.13;;;;;;;;;;6118986;23;20168;-84
2024/03/27 05:38:28;;;;;;;3.40;3.10;;;;;;;;;;6070479;23;20168;-86
2024/03/27 05:40:54;;;;;;;4.30;3.10;;;;;;;;;;6070756;23;20191;-84
2024/03/27 05:43:20;;;;;;;3.33;3.00;;;;;;;;;;6094340;23;20193;-83
2024/03/27 05:45:49;;;;;;;4.10;3.20;;;;;;;;;;6094775;23;20259;-84
2024/03/27 05:48:15;;;;;;;3.67;2.43;;;;;;;;;;6046960;23;20180;-86
2024/03/27 05:50:41;;;;;;;5.43;3.10;;;;;;;;;;6070981;23;20255;-84
2024/03/27 05:53:10;;;;;;;4.67;3.60;;;;;;;;;;6095170;23;20263;-84
2024/03/27 05:55:39;;;;;;;5.63;4.10;;;;;;;;;;6070672;23;20248;-85
2024/03/27 05:58:06;;;;;;;6.50;4.30;;;;;;;;;;6070708;23;20203;-84
2024/03/27 06:00:33;;;;;;;5.37;3.70;;;;;;;;;;6070853;23;20219;-85
2024/03/27 06:02:59;;;;;;;6.67;3.90;;;;;;;;;;6046407;23;20178;-85
2024/03/27 06:05:26;;;;;;;6.37;3.80;;;;;;;;;;6094417;23;20177;-85
2024/03/27 06:07:52;;;;;;;5.90;4.03;;;;;;;;;;6070099;23;20628;-86
2024/03/27 06:10:18;;;;;;;5.03;3.20;;;;;;;;;;6070464;23;20199;-85
2024/03/27 06:12:44;;;;;;;5.10;3.57;;;;;;;;;;6070204;23;20623;-85
2024/03/27 06:15:10;;;;;;;6.83;4.10;;;;;;;;;;6045752;23;20601;-77
2024/03/27 06:17:36;;;;;;;4.93;3.30;;;;;;;;;;6092985;23;20171;-77
2024/03/27 06:20:04;;;;;;;6.07;3.80;;;;;;;;;;6092818;23;20164;-77
2024/03/27 06:22:30;;;;;;;4.53;3.33;;;;;;;;;;6092765;23;20164;-77
2024/03/27 06:24:57;;;;;;;4.33;3.63;;;;;;;;;;6092643;23;20751;-77
2024/03/27 06:27:24;;;;;;;4.50;3.43;;;;;;;;;;6092824;23;20531;-77
2024/03/27 06:29:50;;;;;;;5.83;3.63;;;;;;;;;;6091283;23;20168;-86
2024/03/27 06:32:16;;;;;;;6.60;3.47;;;;;;;;;;6094558;23;20255;-85
2024/03/27 06:34:43;;;;;;;3.97;3.30;;;;;;;;;;6092846;23;20240;-86
2024/03/27 06:37:09;;;;;;;4.53;3.83;;;;;;;;;;6069929;23;20650;-85
2024/03/27 06:39:34;;;;;;;5.17;3.43;;;;;;;;;;6118239;23;20254;-86
2024/03/27 06:42:03;;;;;;;4.27;3.30;;;;;;;;;;6093410;23;20251;-85
2024/03/27 06:44:29;;;;;;;4.90;3.53;;;;;;;;;;6093598;23;20178;-85
2024/03/27 06:46:55;;;;;;;7.37;3.97;;;;;;;;;;6093323;23;20169;-85
2024/03/27 06:49:32;;;;;;;7.73;3.97;;;;;;;;;;6093367;23;20196;-86
2024/03/27 06:51:58;;;;;;;4.67;3.27;;;;;;;;;;6070130;23;20172;-85
2024/03/27 06:54:27;;;;;;;6.17;3.67;;;;;;;;;;6117294;23;20231;-85
2024/03/27 06:56:53;;;;;;;5.77;3.50;;;;;;;;;;6093999;23;20169;-85
2024/03/27 06:59:21;;;;;;;5.60;3.47;;;;;;;;;;6093573;23;20173;-85
2024/03/27 07:01:50;;;;;;;4.57;3.50;;;;;;;;;;6117849;23;20173;-85
2024/03/27 07:04:19;;;;;;;6.17;3.70;;;;;;;;;;6093673;23;20179;-85
2024/03/27 07:06:47;;;;;;;3.87;3.40;;;;;;;;;;6069908;23;20260;-85
2024/03/27 07:09:14;;;;;;;4.90;3.57;;;;;;;;;;6093098;23;20170;-85
2024/03/27 07:11:39;;;;;;;6.23;3.87;;;;;;;;;;6069618;23;20248;-85
2024/03/27 07:14:06;;;;;;;4.77;3.70;;;;;;;;;;6117149;23;20523;-85
2024/03/27 07:16:32;;;;;;;3.87;3.40;;;;;;;;;;6069646;23;20166;-85
2024/03/27 07:18:58;;;;;;;5.30;3.60;;;;;;;;;;6093723;23;20251;-85
2024/03/27 07:21:26;;;;;;;5.70;3.60;;;;;;;;;;6093720;23;20162;-85
2024/03/27 07:23:53;;;;;;;6.63;3.90;;;;;;;;;;6068718;23;20174;-85
2024/03/27 07:26:19;;;;;;;5.87;3.93;;;;;;;;;;6093480;23;20768;-85
2024/03/27 07:28:45;;;;;;;5.90;4.03;;;;;;;;;;6045400;23;20188;-84
2024/03/27 07:31:14;;;;;;;6.50;3.30;;;;;;;;;;6093166;23;20231;-85
2024/03/27 07:33:46;;;;;;;8.60;4.20;;;;;;;;;;6092587;23;20205;-84
2024/03/27 07:36:18;;;;;;;5.37;3.70;;;;;;;;;;6069374;23;20238;-85
2024/03/27 07:38:44;;;;;;;3.90;3.50;;;;;;;;;;6069137;23;20617;-85
2024/03/27 07:41:13;;;;;;;4.53;3.90;;;;;;;;;;6093083;23;20196;-84
2024/03/27 07:43:45;;;;;;;6.60;4.03;;;;;;;;;;6068730;23;20263;-85
2024/03/27 07:46:15;;;;;;;4.90;4.07;;;;;;;;;;6093047;23;20175;-84
2024/03/27 07:48:44;;;;;;;6.63;3.77;;;;;;;;;;6069782;23;20252;-85
2024/03/27 07:51:11;;;;;;;4.63;3.70;;;;;;;;;;6069190;23;20292;-84
2024/03/27 07:53:37;;;;;;;5.33;3.80;;;;;;;;;;6093458;23;20228;-84
2024/03/27 07:56:03;;;;;;;5.43;3.87;;;;;;;;;;6068932;23;20270;-85
2024/03/27 07:58:29;;;;;;;5.30;4.00;;;;;;;;;;6069159;23;20256;-85
2024/03/27 08:00:58;;;;;;;6.00;3.60;;;;;;;;;;6070202;23;20267;-84
2024/03/27 08:03:25;;;;;;;5.57;2.83;;;;;;;;;;6068182;23;20160;-85
2024/03/27 08:05:54;;;;;;;5.40;3.60;;;;;;;;;;6091710;23;20198;-84
2024/03/27 08:08:22;;;;;;;3.83;3.40;;;;;;;;;;6068619;23;20176;-84
2024/03/27 08:10:55;;;;;;;4.10;3.20;;;;;;;;;;6045313;23;20203;-85
2024/03/27 08:13:21;;;;;;;3.90;3.20;;;;;;;;;;6068570;23;20175;-85
2024/03/27 08:15:47;;;;;;;4.83;3.17;;;;;;;;;;6043779;23;20195;-85
2024/03/27 08:18:20;;;;;;;3.30;2.93;;;;;;;;;;6070418;23;20191;-84
2024/03/27 08:20:55;;;;;;;3.93;3.23;;;;;;;;;;6070523;23;20156;-84
2024/03/27 08:23:22;;;;;;;5.10;3.03;;;;;;;;;;6045662;23;20172;-84
2024/03/27 08:25:48;;;;;;;5.13;3.30;;;;;;;;;;6094853;23;20256;-84
2024/03/27 08:28:14;;;;;;;3.90;3.13;;;;;;;;;;6047099;23;20265;-85
2024/03/27 08:30:43;;;;;;;4.30;3.30;;;;;;;;;;6070561;23;20246;-84
2024/03/27 08:33:14;;;;;;;4.67;3.40;;;;;;;;;;6048121;23;20215;-84
2024/03/27 08:35:40;;;;;;;5.97;3.47;;;;;;;;;;6046531;23;20267;-85
2024/03/27 08:38:08;;;;;;;8.33;3.30;;;;;;;;;;6094301;23;20172;-84
2024/03/27 08:40:34;;;;;;;5.07;3.77;;;;;;;;;;6070680;23;20172;-84
2024/03/27 08:43:03;;;;;;;5.33;3.60;;;;;;;;;;6070859;23;20177;-84
2024/03/27 08:45:28;;;;;;;4.63;3.30;;;;;;;;;;6046763;23;20665;-84
2024/03/27 08:47:57;;;;;;;6.80;3.70;;;;;;;;;;6094687;23;20188;-84
2024/03/27 08:50:23;;;;;;;4.10;3.13;;;;;;;;;;6094523;23;20179;-84
2024/03/27 08:52:52;;;;;;;4.23;2.97;;;;;;;;;;6047034;23;20707;-83
2024/03/27 08:55:23;;;;;;;5.63;3.70;;;;;;;;;;6093412;23;20719;-84
2024/03/27 08:57:56;;;;;;;3.97;3.13;;;;;;;;;;6070836;23;20171;-84
2024/03/27 09:00:25;;;;;;;3.47;3.03;;;;;;;;;;6094354;23;20611;-84
2024/03/27 09:02:53;;;;;;;4.93;3.00;;;;;;;;;;6094771;23;20168;-84
2024/03/27 09:05:21;;;;;;;3.37;3.07;;;;;;;;;;6093852;23;20638;-84
2024/03/27 09:07:47;;;;;;;3.87;3.37;;;;;;;;;;6070095;23;20177;-84
2024/03/27 09:10:15;;;;;;;5.27;2.97;;;;;;;;;;6070480;23;20161;-84
2024/03/27 09:12:41;;;;;;;3.50;3.20;;;;;;;;;;6070145;23;20751;-84
2024/03/27 09:15:07;;;;;;;4.10;3.70;;;;;;;;;;6045820;23;20185;-84
2024/03/27 09:17:35;;;;;;;4.70;3.70;;;;;;;;;;6021770;23;20196;-84
2024/03/27 09:20:01;;;;;;;5.37;3.40;;;;;;;;;;6090469;23;20182;-84
2024/03/27 09:22:30;;;;;;;6.30;3.53;;;;;;;;;;6068725;23;20579;-84
2024/03/27 09:24:56;;;;;;;6.93;3.80;;;;;;;;;;6094002;23;20203;-84
2024/03/27 09:27:22;;;;;;;4.73;3.67;;;;;;;;;;6069687;23;20172;-83
2024/03/27 09:29:54;;;;;;;5.10;3.40;;;;;;;;;;6069503;23;20160;-84
2024/03/27 09:32:21;;;;;;;4.63;3.60;;;;;;;;;;6094216;23;20149;-84
2024/03/27 09:34:48;;;;;;;5.47;3.77;;;;;;;;;;6068770;23;20226;-84
2024/03/27 09:37:16;;;;;;;4.43;3.47;;;;;;;;;;6092300;23;20172;-85
2024/03/27 09:39:43;;;;;;;4.03;3.63;;;;;;;;;;6092450;23;20247;-84
2024/03/27 09:42:10;;;;;;;5.13;3.83;;;;;;;;;;6070393;23;20763;-84
2024/03/27 09:44:37;;;;;;;5.40;4.03;;;;;;;;;;6069678;23;20637;-84
2024/03/27 09:47:06;;;;;;;4.47;3.43;;;;;;;;;;6094141;23;20228;-84
2024/03/27 09:49:32;;;;;;;4.73;3.77;;;;;;;;;;6069891;23;20169;-84
2024/03/27 09:51:58;;;;;;;6.43;3.80;;;;;;;;;;6094031;23;20173;-85
2024/03/27 09:54:25;;;;;;;5.27;3.80;;;;;;;;;;6093337;23;20675;-84
2024/03/27 09:56:54;;;;;;;4.83;3.53;;;;;;;;;;6093667;23;20175;-83
2024/03/27 09:59:23;;;;;;;5.47;3.37;;;;;;;;;;6093266;23;20168;-84
2024/03/27 10:02:01;;;;;;;4.83;3.10;;;;;;;;;;6094052;23;20220;-83
2024/03/27 10:04:33;;;;;;;4.63;3.00;;;;;;;;;;6093935;23;20227;-83
2024/03/27 10:06:58;;;;;;;5.43;3.20;;;;;;;;;;6045565;23;20176;-83
2024/03/27 10:09:24;;;;;;;5.53;3.43;;;;;;;;;;6093573;23;20256;-84
2024/03/27 10:11:53;;;;;;;3.23;2.93;;;;;;;;;;6046605;23;20251;-84
2024/03/27 10:14:19;;;;;;;4.67;2.90;;;;;;;;;;6069081;23;20193;-83
2024/03/27 10:16:57;;;;;;;6.13;3.17;;;;;;;;;;6071223;23;20203;-83
2024/03/27 10:19:23;;;;;;;4.87;3.50;;;;;;;;;;6069192;23;20171;-83
2024/03/27 10:21:49;;;;;;;4.23;3.23;;;;;;;;;;6093327;23;20247;-83
2024/03/27 10:24:16;;;;;;;3.73;3.27;;;;;;;;;;6092703;23;20168;-84
2024/03/27 10:26:48;;;;;;;4.63;3.70;;;;;;;;;;6069995;23;20189;-84
2024/03/27 10:29:14;;;;;;;5.40;3.00;;;;;;;;;;6092765;23;20243;-83
2024/03/27 10:31:40;;;;;;;9.43;3.77;;;;;;;;;;6093275;23;20165;-84
2024/03/27 10:34:08;;;;;;;4.80;3.00;;;;;;;;;;6089849;23;20192;-83
2024/03/27 10:36:37;;;;;;;3.97;3.00;;;;;;;;;;6065646;23;20215;-83
2024/03/27 10:39:11;;;;;;;4.77;3.00;;;;;;;;;;6067661;23;20180;-83
2024/03/27 10:41:38;;;;;;;4.40;2.97;;;;;;;;;;6044258;23;20209;-83
2024/03/27 10:44:04;;;;;;;5.87;2.90;;;;;;;;;;6093387;23;20197;-83
2024/03/27 10:46:32;;;;;;;3.60;3.17;;;;;;;;;;6069107;23;20252;-83
2024/03/27 10:48:59;;;;;;;4.40;3.27;;;;;;;;;;6117572;23;20211;-83
2024/03/27 10:51:25;;;;;;;3.97;3.33;;;;;;;;;;6092822;23;20248;-83
2024/03/27 10:53:55;;;;;;;3.27;2.60;;;;;;;;;;6069132;23;20300;-83
2024/03/27 10:56:21;;;;;;;4.37;3.00;;;;;;;;;;6092714;23;20173;-83
2024/03/27 10:58:47;;;;;;;5.00;3.10;;;;;;;;;;6068888;23;20176;-84
2024/03/27 11:01:14;;;;;;;3.73;3.00;;;;;;;;;;6069143;23;20609;-83
2024/03/27 11:03:48;;;;;;;5.23;3.33;;;;;;;;;;6069161;23;20169;-83
2024/03/27 11:06:17;;;;;;;5.10;2.87;;;;;;;;;;6093293;23;20235;-83
2024/03/27 11:08:46;;;;;;;4.20;3.07;;;;;;;;;;6093023;23;20297;-83
2024/03/27 11:11:15;;;;;;;3.57;3.03;;;;;;;;;;6045401;23;20632;-83
2024/03/27 11:13:44;;;;;;;5.33;2.80;;;;;;;;;;6068890;23;20174;-83
2024/03/27 11:16:11;;;;;;;4.33;2.90;;;;;;;;;;6045163;23;20193;-83
2024/03/27 11:18:43;;;;;;;3.63;3.30;;;;;;;;;;6092111;23;20172;-83
2024/03/27 11:21:11;;;;;;;4.40;3.03;;;;;;;;;;6045234;23;20174;-84
2024/03/27 11:23:45;;;;;;;5.17;3.47;;;;;;;;;;6046527;23;20171;-83
2024/03/27 11:26:11;;;;;;;6.03;3.30;;;;;;;;;;6068802;23;20646;-83
2024/03/27 11:28:38;;;;;;;4.53;3.00;;;;;;;;;;6068677;23;20175;-83
2024/03/27 11:31:05;;;;;;;5.50;3.40;;;;;;;;;;6068548;23;20712;-83
2024/03/27 11:33:41;;;;;;;4.27;2.93;;;;;;;;;;6067802;23;20669;-83
2024/03/27 11:36:12;;;;;;;5.27;3.27;;;;;;;;;;6068033;23;20191;-83
2024/03/27 11:38:40;;;;;;;4.37;3.37;;;;;;;;;;6091828;23;20172;-83
2024/03/27 11:41:07;;;;;;;4.53;3.30;;;;;;;;;;6043916;23;20729;-83
2024/03/27 11:43:34;;;;;;;5.00;3.50;;;;;;;;;;6115277;23;20229;-83
2024/03/27 11:46:00;;;;;;;4.27;3.30;;;;;;;;;;6091870;23;20255;-83
2024/03/27 11:48:27;;;;;;;4.00;3.60;;;;;;;;;;6092702;23;20476;-84
2024/03/27 11:50:53;;;;;;;5.33;3.57;;;;;;;;;;6116595;23;20182;-83
2024/03/27 11:53:20;;;;;;;3.50;2.87;;;;;;;;;;6068771;23;20180;-83
2024/03/27 11:55:52;;;;;;;3.93;3.00;;;;;;;;;;6068303;23;20275;-83
2024/03/27 11:58:18;;;;;;;4.77;2.90;;;;;;;;;;6068784;23;20274;-83
2024/03/27 12:00:47;;;;;;;4.90;3.10;;;;;;;;;;6044649;23;20222;-83
2024/03/27 12:03:14;;;;;;;6.23;3.80;;;;;;;;;;6092725;23;20197;-84
2024/03/27 12:05:42;;;;;;;4.70;3.33;;;;;;;;;;6044739;23;20175;-83
2024/03/27 12:08:09;;;;;;;3.00;2.70;;;;;;;;;;6068451;23;20183;-83
2024/03/27 12:10:35;;;;;;;3.93;2.73;;;;;;;;;;6044552;23;20327;-83
2024/03/27 12:13:05;;;;;;;4.33;2.87;;;;;;;;;;6068188;23;20179;-83
2024/03/27 12:15:31;;;;;;;5.57;2.93;;;;;;;;;;6067923;23;20246;-83
2024/03/27 12:18:00;;;;;;;3.70;2.70;;;;;;;;;;6044844;23;20543;-83
2024/03/27 12:20:30;;;;;;;4.20;2.50;;;;;;;;;;6068177;23;20594;-83
2024/03/27 12:22:57;;;;;;;4.13;2.73;;;;;;;;;;6092084;23;20174;-83
2024/03/27 12:25:32;;;;;;;4.77;3.20;;;;;;;;;;6068070;23;20168;-83
2024/03/27 12:28:02;;;;;;;4.37;2.50;;;;;;;;;;6092502;23;20194;-83
2024/03/27 12:30:28;;;;;;;4.73;2.80;;;;;;;;;;6092121;23;20211;-83
2024/03/27 12:32:54;;;;;;;3.10;2.37;;;;;;;;;;6092106;23;20626;-82
2024/03/27 12:35:21;;;;;;;3.67;2.67;;;;;;;;;;6114665;23;20650;-83
2024/03/27 12:37:48;;;;;;;4.50;2.70;;;;;;;;;;6043495;23;20182;-83
2024/03/27 12:40:14;;;;;;;3.17;2.57;;;;;;;;;;6113836;23;20175;-83
2024/03/27 12:42:41;;;;;;;5.30;2.80;;;;;;;;;;6068338;23;20223;-83
2024/03/27 12:45:08;;;;;;;3.20;2.50;;;;;;;;;;6044553;23;20169;-83
2024/03/27 12:47:34;;;;;;;3.27;2.60;;;;;;;;;;6068616;23;20182;-83
2024/03/27 12:50:00;;;;;;;3.30;2.70;;;;;;;;;;6091983;23;20689;-83
2024/03/27 12:52:26;;;;;;;4.30;2.53;;;;;;;;;;6092197;23;20176;-83
2024/03/27 12:54:54;;;;;;;3.50;2.60;;;;;;;;;;6092032;23;20667;-83
2024/03/27 12:57:20;;;;;;;5.20;2.93;;;;;;;;;;6092611;23;20170;-82
2024/03/27 12:59:47;;;;;;;5.53;2.90;;;;;;;;;;6068098;23;20175;-83
2024/03/27 13:02:13;;;;;;;5.33;2.57;;;;;;;;;;6067624;23;20174;-83
2024/03/27 13:04:41;;;;;;;4.77;2.50;;;;;;;;;;6093728;23;20172;-83
2024/03/27 13:07:08;;;;;;;4.37;2.63;;;;;;;;;;6069913;23;20172;-83
2024/03/27 13:09:33;;;;;;;3.93;2.70;;;;;;;;;;6093310;23;20945;-83
2024/03/27 13:11:59;;;;;;;4.90;2.60;;;;;;;;;;6070136;23;20789;-83
2024/03/27 13:14:28;;;;;;;4.55;2.70;;;;;;;;;;6069716;23;20187;-83
2024/03/27 13:16:57;;;;;;;5.17;2.70;;;;;;;;;;6093753;23;20865;-83
2024/03/27 13:19:23;;;;;;;4.07;2.33;;;;;;;;;;6093322;23;20637;-82
2024/03/27 13:21:49;;;;;;;5.13;2.40;;;;;;;;;;6093978;23;20166;-82
2024/03/27 13:24:14;;;;;;;2.87;2.50;;;;;;;;;;6069822;23;20168;-82
2024/03/27 13:26:40;;;;;;;5.03;3.03;;;;;;;;;;6093761;23;20186;-82
2024/03/27 13:29:07;;;;;;;4.03;2.30;;;;;;;;;;6093539;23;20168;-82
2024/03/27 13:31:33;;;;;;;4.83;2.30;;;;;;;;;;6093431;23;20167;-83
2024/03/27 13:33:58;;;;;;;3.27;2.30;;;;;;;;;;6093177;23;20276;-84
2024/03/27 13:36:24;;;;;;;5.03;2.30;;;;;;;;;;6069377;23;20207;-83
2024/03/27 13:38:50;;;;;;;2.77;2.47;;;;;;;;;;6093726;23;20227;-83
2024/03/27 13:41:18;;;;;;;5.83;2.30;;;;;;;;;;6093234;23;20782;-83
2024/03/27 13:43:50;;;;;;;3.40;2.23;;;;;;;;;;6070588;23;20170;-83
2024/03/27 13:46:17;;;;;;;3.17;2.27;;;;;;;;;;6069500;23;20205;-83
2024/03/27 13:48:50;;;;;;;4.80;2.20;;;;;;;;;;6069802;23;20183;-82
2024/03/27 13:51:15;;;;;;;5.43;2.67;;;;;;;;;;6046058;23;20246;-83
2024/03/27 13:53:41;;;;;;;5.47;2.00;;;;;;;;;;6093896;23;20174;-83
2024/03/27 13:56:07;;;;;;;4.37;2.30;;;;;;;;;;6093374;23;20287;-83
2024/03/27 13:58:32;;;;;;;3.67;2.53;;;;;;;;;;6046145;23;20171;-83
2024/03/27 14:01:01;;;;;;;4.60;2.40;;;;;;;;;;6093890;23;20166;-83
2024/03/27 14:03:27;;;;;;;3.87;2.47;;;;;;;;;;6094194;23;20244;-83
2024/03/27 14:05:53;;;;;;;3.47;2.40;;;;;;;;;;6069483;23;20168;-83
2024/03/27 14:08:19;;;;;;;3.47;2.50;;;;;;;;;;6093659;23;20208;-83
2024/03/27 14:10:45;;;;;;;5.73;2.40;;;;;;;;;;6069327;23;20166;-83
2024/03/27 14:13:11;;;;;;;4.23;2.20;;;;;;;;;;6093661;23;20633;-83
2024/03/27 14:15:37;;;;;;;4.77;2.50;;;;;;;;;;6093297;23;20196;-83
2024/03/27 14:18:03;;;;;;;4.80;2.17;;;;;;;;;;6069971;23;20186;-83
2024/03/27 14:20:29;;;;;;;4.90;2.47;;;;;;;;;;6093237;23;20212;-83
2024/03/27 14:22:55;;;;;;;5.87;2.30;;;;;;;;;;6093877;23;20171;-83
2024/03/27 14:25:21;;;;;;;5.83;2.50;;;;;;;;;;6045485;23;20205;-83
2024/03/27 14:27:47;;;;;;;6.17;2.47;;;;;;;;;;6069816;23;20198;-83
2024/03/27 14:30:15;;;;;;;6.37;2.73;;;;;;;;;;6069186;23;20170;-83
2024/03/27 14:32:42;;;;;;;4.60;2.50;;;;;;;;;;6045701;23;20181;-83
2024/03/27 14:35:08;;;;;;;5.07;2.40;;;;;;;;;;6069376;23;20233;-83
2024/03/27 14:37:34;;;;;;;4.80;2.20;;;;;;;;;;6068728;23;20223;-83
2024/03/27 14:40:00;;;;;;;4.67;2.90;;;;;;;;;;6043590;23;20259;-83
2024/03/27 14:42:26;;;;;;;4.53;2.33;;;;;;;;;;6092982;23;20191;-83